Time,TemperatureF,DewpointF,PressureIn,WindDirection,WindDirectionDegrees,WindSpeedMPH,WindSpeedGustMPH,Humidity,HourlyPrecipIn,Conditions,Clouds,dailyrainin,SolarRadiationWatts/m^2,SoftwareType,DateUTC
2013-03-22 00:22:00,38.0,18.0,-100.00,WNW,284,12.0,19.0,43,0.00,,,0.00,581.000000,,2013-03-22 00:22:00,
2013-03-22 00:31:00,38.0,18.0,-100.00,WNW,284,12.0,19.0,43,0.00,,,0.00,581.000000,,2013-03-22 00:31:00,
2013-03-22 00:42:00,38.0,18.0,-100.00,WNW,284,12.0,19.0,43,0.00,,,0.00,581.000000,,2013-03-22 00:42:00,
2013-03-22 00:52:00,38.0,18.0,-100.00,WNW,284,12.0,19.0,43,0.00,,,0.00,581.000000,,2013-03-22 00:52:00,
2013-03-22 01:22:00,33.0,18.0,-100.00,WNW,287,9.0,17.0,54,0.00,,,0.00,281.000000,,2013-03-22 01:22:00,
2013-03-22 01:32:00,33.0,18.0,-100.00,WNW,287,9.0,17.0,54,0.00,,,0.00,281.000000,,2013-03-22 01:32:00,
2013-03-22 01:42:00,33.0,18.0,-100.00,WNW,287,9.0,17.0,54,0.00,,,0.00,281.000000,,2013-03-22 01:42:00,
2013-03-22 01:52:00,33.0,18.0,-100.00,WNW,287,9.0,17.0,54,0.00,,,0.00,281.000000,,2013-03-22 01:52:00,
2013-03-22 02:22:00,33.0,18.0,-100.00,WNW,283,10.0,17.0,53,0.00,,,0.00,150.000000,,2013-03-22 02:22:00,
2013-03-22 02:32:00,33.0,18.0,-100.00,WNW,283,10.0,17.0,53,0.00,,,0.00,150.000000,,2013-03-22 02:32:00,
2013-03-22 02:42:00,33.0,18.0,-100.00,WNW,283,10.0,17.0,53,0.00,,,0.00,150.000000,,2013-03-22 02:42:00,
2013-03-22 02:51:00,33.0,18.0,-100.00,WNW,283,10.0,17.0,53,0.00,,,0.00,150.000000,,2013-03-22 02:51:00,
2013-03-22 03:22:00,30.0,18.0,-100.00,WNW,291,3.0,12.0,60,0.00,,,0.00,9.000000,,2013-03-22 03:22:00,
2013-03-22 03:33:00,30.0,18.0,-100.00,WNW,291,3.0,12.0,60,0.00,,,0.00,9.000000,,2013-03-22 03:33:00,
2013-03-22 03:42:00,30.0,18.0,-100.00,WNW,291,3.0,12.0,60,0.00,,,0.00,9.000000,,2013-03-22 03:42:00,
2013-03-22 03:52:00,30.0,18.0,-100.00,WNW,291,3.0,12.0,60,0.00,,,0.00,9.000000,,2013-03-22 03:52:00,
2013-03-22 04:22:00,29.0,17.0,-100.00,WNW,294,9.0,16.0,61,0.00,,,0.00,1.000000,,2013-03-22 04:22:00,
2013-03-22 04:32:00,29.0,17.0,-100.00,WNW,294,9.0,16.0,61,0.00,,,0.00,1.000000,,2013-03-22 04:32:00,
2013-03-22 04:42:00,29.0,17.0,-100.00,WNW,294,9.0,16.0,61,0.00,,,0.00,1.000000,,2013-03-22 04:42:00,
2013-03-22 04:52:00,29.0,17.0,-100.00,WNW,294,9.0,16.0,61,0.00,,,0.00,1.000000,,2013-03-22 04:52:00,
2013-03-22 05:22:00,28.0,18.0,-100.00,WNW,290,7.0,12.0,66,0.00,,,0.00,1.000000,,2013-03-22 05:22:00,
2013-03-22 05:32:00,28.0,18.0,-100.00,WNW,290,7.0,12.0,66,0.00,,,0.00,1.000000,,2013-03-22 05:32:00,
2013-03-22 05:42:00,28.0,18.0,-100.00,WNW,290,7.0,12.0,66,0.00,,,0.00,1.000000,,2013-03-22 05:42:00,
2013-03-22 05:52:00,28.0,18.0,-100.00,WNW,290,7.0,12.0,66,0.00,,,0.00,1.000000,,2013-03-22 05:52:00,
2013-03-22 06:22:00,27.0,18.0,-100.00,West,266,7.0,11.0,67,0.00,,,0.00,1.000000,,2013-03-22 06:22:00,
2013-03-22 06:32:00,27.0,18.0,-100.00,West,266,7.0,11.0,67,0.00,,,0.00,1.000000,,2013-03-22 06:32:00,
2013-03-22 06:42:00,27.0,18.0,-100.00,West,266,7.0,11.0,67,0.00,,,0.00,1.000000,,2013-03-22 06:42:00,
2013-03-22 06:52:00,27.0,18.0,-100.00,West,266,7.0,11.0,67,0.00,,,0.00,1.000000,,2013-03-22 06:52:00,
2013-03-22 07:22:00,26.0,18.0,-100.00,NW,310,5.0,10.0,70,0.00,,,0.00,1.000000,,2013-03-22 07:22:00,
2013-03-22 07:32:00,26.0,18.0,-100.00,NW,310,5.0,10.0,70,0.00,,,0.00,1.000000,,2013-03-22 07:32:00,
2013-03-22 07:42:00,26.0,18.0,-100.00,NW,310,5.0,10.0,70,0.00,,,0.00,1.000000,,2013-03-22 07:42:00,
2013-03-22 07:52:00,26.0,18.0,-100.00,NW,310,5.0,10.0,70,0.00,,,0.00,1.000000,,2013-03-22 07:52:00,
2013-03-22 08:22:00,25.0,16.0,-100.00,NW,310,9.0,14.0,68,0.00,,,0.00,1.000000,,2013-03-22 08:22:00,
2013-03-22 08:32:00,25.0,16.0,-100.00,NW,310,9.0,14.0,68,0.00,,,0.00,1.000000,,2013-03-22 08:32:00,
2013-03-22 08:42:00,25.0,16.0,-100.00,NW,310,9.0,14.0,68,0.00,,,0.00,1.000000,,2013-03-22 08:42:00,
2013-03-22 08:52:00,25.0,16.0,-100.00,NW,310,9.0,14.0,68,0.00,,,0.00,1.000000,,2013-03-22 08:52:00,
2013-03-22 09:22:00,24.0,14.0,-100.00,NW,324,9.0,13.0,66,0.00,,,0.00,1.000000,,2013-03-22 09:22:00,
2013-03-22 09:32:00,24.0,14.0,-100.00,NW,324,9.0,13.0,66,0.00,,,0.00,1.000000,,2013-03-22 09:32:00,
2013-03-22 09:42:00,24.0,14.0,-100.00,NW,324,9.0,13.0,66,0.00,,,0.00,1.000000,,2013-03-22 09:42:00,
2013-03-22 09:53:00,24.0,14.0,-100.00,NW,324,9.0,13.0,66,0.00,,,0.00,1.000000,,2013-03-22 09:53:00,
2013-03-22 10:22:00,24.0,14.0,-100.00,NW,321,6.0,13.0,66,0.00,,,0.00,1.000000,,2013-03-22 10:22:00,
2013-03-22 10:32:00,24.0,14.0,-100.00,NW,321,6.0,13.0,66,0.00,,,0.00,1.000000,,2013-03-22 10:32:00,
2013-03-22 10:42:00,24.0,14.0,-100.00,NW,321,6.0,13.0,66,0.00,,,0.00,1.000000,,2013-03-22 10:42:00,
2013-03-22 10:52:00,24.0,14.0,-100.00,NW,321,6.0,13.0,66,0.00,,,0.00,1.000000,,2013-03-22 10:52:00,
2013-03-22 11:32:00,24.0,16.0,-100.00,NW,323,5.0,12.0,70,0.00,,,0.00,1.000000,,2013-03-22 11:32:00,
2013-03-22 11:42:00,24.0,16.0,-100.00,NW,323,5.0,12.0,70,0.00,,,0.00,1.000000,,2013-03-22 11:42:00,
2013-03-22 11:52:00,24.0,16.0,-100.00,NW,323,5.0,12.0,70,0.00,,,0.00,1.000000,,2013-03-22 11:52:00,
2013-03-22 12:22:00,23.0,15.0,-100.00,NW,308,5.0,13.0,70,0.00,,,0.00,1.000000,,2013-03-22 12:22:00,
2013-03-22 12:32:00,23.0,15.0,-100.00,NW,308,5.0,13.0,70,0.00,,,0.00,1.000000,,2013-03-22 12:32:00,
2013-03-22 12:42:00,23.0,15.0,-100.00,NW,308,5.0,13.0,70,0.00,,,0.00,1.000000,,2013-03-22 12:42:00,
2013-03-22 12:52:00,23.0,15.0,-100.00,NW,308,5.0,13.0,70,0.00,,,0.00,1.000000,,2013-03-22 12:52:00,
2013-03-22 13:22:00,23.0,14.0,-100.00,WNW,285,9.0,14.0,67,0.00,,,0.00,1.000000,,2013-03-22 13:22:00,
2013-03-22 13:32:00,23.0,14.0,-100.00,WNW,285,9.0,14.0,67,0.00,,,0.00,1.000000,,2013-03-22 13:32:00,
2013-03-22 13:42:00,23.0,14.0,-100.00,WNW,285,9.0,14.0,67,0.00,,,0.00,1.000000,,2013-03-22 13:42:00,
2013-03-22 13:52:00,23.0,14.0,-100.00,WNW,285,9.0,14.0,67,0.00,,,0.00,1.000000,,2013-03-22 13:52:00,
2013-03-22 15:22:00,24.0,16.0,-100.00,WNW,300,2.0,6.0,70,-99.99,,,0.00,29.000000,,2013-03-22 15:22:00,
2013-03-22 15:32:00,24.0,16.0,-100.00,WNW,300,2.0,6.0,70,-99.99,,,0.00,29.000000,,2013-03-22 15:32:00,
2013-03-22 15:42:00,24.0,16.0,-100.00,WNW,300,2.0,6.0,70,-99.99,,,0.00,29.000000,,2013-03-22 15:42:00,
2013-03-22 15:52:00,24.0,16.0,-100.00,WNW,300,2.0,6.0,70,-99.99,,,0.00,29.000000,,2013-03-22 15:52:00,
2013-03-22 16:22:00,29.0,18.0,-100.00,SSW,202,3.0,5.0,64,0.00,,,0.00,164.000000,,2013-03-22 16:22:00,
2013-03-22 16:32:00,29.0,18.0,-100.00,SSW,202,3.0,5.0,64,0.00,,,0.00,164.000000,,2013-03-22 16:32:00,
2013-03-22 16:42:00,29.0,18.0,-100.00,SSW,202,3.0,5.0,64,0.00,,,0.00,164.000000,,2013-03-22 16:42:00,
2013-03-22 16:52:00,29.0,18.0,-100.00,SSW,202,3.0,5.0,64,0.00,,,0.00,164.000000,,2013-03-22 16:52:00,
2013-03-22 17:23:00,29.0,16.0,-100.00,NNW,331,6.0,11.0,58,0.00,,,0.00,275.000000,,2013-03-22 17:23:00,
2013-03-22 17:32:00,29.0,16.0,-100.00,NNW,331,6.0,11.0,58,0.00,,,0.00,275.000000,,2013-03-22 17:32:00,
2013-03-22 17:42:00,29.0,16.0,-100.00,NNW,331,6.0,11.0,58,0.00,,,0.00,275.000000,,2013-03-22 17:42:00,
2013-03-22 17:52:00,29.0,16.0,-100.00,NNW,331,6.0,11.0,58,0.00,,,0.00,275.000000,,2013-03-22 17:52:00,
2013-03-22 18:22:00,31.0,15.0,-100.00,NW,305,8.0,16.0,51,0.00,,,0.00,520.000000,,2013-03-22 18:22:00,
2013-03-22 18:32:00,31.0,15.0,-100.00,NW,305,8.0,16.0,51,0.00,,,0.00,520.000000,,2013-03-22 18:32:00,
2013-03-22 18:42:00,31.0,15.0,-100.00,NW,305,8.0,16.0,51,0.00,,,0.00,520.000000,,2013-03-22 18:42:00,
2013-03-22 18:52:00,31.0,15.0,-100.00,NW,305,8.0,16.0,51,0.00,,,0.00,520.000000,,2013-03-22 18:52:00,
2013-03-22 19:22:00,34.0,14.0,-100.00,NW,309,10.0,18.0,43,0.00,,,0.00,772.000000,,2013-03-22 19:22:00,
2013-03-22 19:32:00,34.0,14.0,-100.00,NW,309,10.0,18.0,43,0.00,,,0.00,772.000000,,2013-03-22 19:32:00,
2013-03-22 19:42:00,34.0,14.0,-100.00,NW,309,10.0,18.0,43,0.00,,,0.00,772.000000,,2013-03-22 19:42:00,
2013-03-22 19:52:00,34.0,14.0,-100.00,NW,309,10.0,18.0,43,0.00,,,0.00,772.000000,,2013-03-22 19:52:00,
2013-03-22 20:22:00,36.0,16.0,-100.00,WNW,295,10.0,19.0,44,0.00,,,0.00,838.000000,,2013-03-22 20:22:00,
2013-03-22 20:32:00,36.0,16.0,-100.00,WNW,295,10.0,19.0,44,0.00,,,0.00,838.000000,,2013-03-22 20:32:00,
2013-03-22 20:42:00,36.0,16.0,-100.00,WNW,295,10.0,19.0,44,0.00,,,0.00,838.000000,,2013-03-22 20:42:00,
2013-03-22 20:52:00,36.0,16.0,-100.00,WNW,295,10.0,19.0,44,0.00,,,0.00,838.000000,,2013-03-22 20:52:00,
2013-03-22 21:22:00,36.0,16.0,-100.00,WNW,283,14.0,24.0,44,0.00,,,0.00,858.000000,,2013-03-22 21:22:00,
2013-03-22 21:32:00,36.0,16.0,-100.00,WNW,283,14.0,24.0,44,0.00,,,0.00,858.000000,,2013-03-22 21:32:00,
2013-03-22 21:42:00,36.0,16.0,-100.00,WNW,283,14.0,24.0,44,0.00,,,0.00,858.000000,,2013-03-22 21:42:00,
2013-03-22 21:52:00,36.0,16.0,-100.00,WNW,283,14.0,24.0,44,0.00,,,0.00,858.000000,,2013-03-22 21:52:00,
2013-03-22 22:23:00,37.0,16.0,-100.00,WNW,284,14.0,25.0,41,0.00,,,0.00,842.000000,,2013-03-22 22:23:00,
2013-03-22 22:32:00,37.0,16.0,-100.00,WNW,284,14.0,25.0,41,0.00,,,0.00,842.000000,,2013-03-22 22:32:00,
2013-03-22 22:42:00,37.0,16.0,-100.00,WNW,284,14.0,25.0,41,0.00,,,0.00,842.000000,,2013-03-22 22:42:00,
2013-03-22 22:52:00,37.0,16.0,-100.00,WNW,284,14.0,25.0,41,0.00,,,0.00,842.000000,,2013-03-22 22:52:00,
2013-03-22 23:22:00,37.0,17.0,-100.00,WNW,288,14.0,25.0,44,0.00,,,0.00,733.000000,,2013-03-22 23:22:00,
2013-03-22 23:32:00,37.0,17.0,-100.00,WNW,288,14.0,25.0,44,0.00,,,0.00,733.000000,,2013-03-22 23:32:00,
2013-03-22 23:42:00,37.0,17.0,-100.00,WNW,288,14.0,25.0,44,0.00,,,0.00,733.000000,,2013-03-22 23:42:00,
2013-03-22 23:52:00,37.0,17.0,-100.00,WNW,288,14.0,25.0,44,0.00,,,0.00,733.000000,,2013-03-22 23:52:00,